sensor_id;sensor_type;location;lat;lon;timestamp;temperature;humidity
43949;DHT22;29429;51.074;13.764;2023-02-22T00:01:53;9.60;99.90
43949;DHT22;29429;51.074;13.764;2023-02-22T00:04:37;9.50;99.90
43949;DHT22;29429;51.074;13.764;2023-02-22T00:07:07;9.60;99.90
43949;DHT22;29429;51.074;13.764;2023-02-22T00:09:34;9.50;99.90
43949;DHT22;29429;51.074;13.764;2023-02-22T00:12:01;9.40;99.90
43949;DHT22;29429;51.074;13.764;2023-02-22T00:14:28;9.40;99.90
43949;DHT22;29429;51.074;13.764;2023-02-22T00:16:55;9.40;99.90
43949;DHT22;29429;51.074;13.764;2023-02-22T00:19:25;9.40;99.90
43949;DHT22;29429;51.074;13.764;2023-02-22T00:21:53;9.40;99.90
43949;DHT22;29429;51.074;13.764;2023-02-22T00:24:20;9.30;99.90
43949;DHT22;29429;51.074;13.764;2023-02-22T00:26:51;9.40;99.90
43949;DHT22;29429;51.074;13.764;2023-02-22T00:29:22;9.40;99.90
43949;DHT22;29429;51.074;13.764;2023-02-22T00:31:50;9.30;99.90
43949;DHT22;29429;51.074;13.764;2023-02-22T00:34:17;9.30;99.90
43949;DHT22;29429;51.074;13.764;2023-02-22T00:36:46;9.30;99.90
43949;DHT22;29429;51.074;13.764;2023-02-22T00:39:15;9.20;99.90
43949;DHT22;29429;51.074;13.764;2023-02-22T00:41:42;9.20;99.90
43949;DHT22;29429;51.074;13.764;2023-02-22T00:44:10;9.20;99.90
43949;DHT22;29429;51.074;13.764;2023-02-22T00:46:38;9.10;99.90
43949;DHT22;29429;51.074;13.764;2023-02-22T00:49:05;9.00;99.90
43949;DHT22;29429;51.074;13.764;2023-02-22T00:51:32;9.20;99.90
43949;DHT22;29429;51.074;13.764;2023-02-22T00:54:00;9.10;99.90
43949;DHT22;29429;51.074;13.764;2023-02-22T00:56:27;9.10;99.90
43949;DHT22;29429;51.074;13.764;2023-02-22T00:58:54;9.10;99.90
43949;DHT22;29429;51.074;13.764;2023-02-22T01:01:21;9.10;99.90
43949;DHT22;29429;51.074;13.764;2023-02-22T01:03:49;9.10;99.90
43949;DHT22;29429;51.074;13.764;2023-02-22T01:06:17;9.10;99.90
43949;DHT22;29429;51.074;13.764;2023-02-22T01:08:45;9.00;99.90
43949;DHT22;29429;51.074;13.764;2023-02-22T01:11:15;9.00;99.90
43949;DHT22;29429;51.074;13.764;2023-02-22T01:13:43;9.00;99.90
43949;DHT22;29429;51.074;13.764;2023-02-22T01:16:13;9.10;99.90
43949;DHT22;29429;51.074;13.764;2023-02-22T01:18:41;9.00;99.90
43949;DHT22;29429;51.074;13.764;2023-02-22T01:21:08;9.10;99.90
43949;DHT22;29429;51.074;13.764;2023-02-22T01:23:35;9.00;99.90
43949;DHT22;29429;51.074;13.764;2023-02-22T01:26:02;9.10;99.90
43949;DHT22;29429;51.074;13.764;2023-02-22T01:28:32;9.10;99.90
43949;DHT22;29429;51.074;13.764;2023-02-22T01:31:01;9.20;99.90
43949;DHT22;29429;51.074;13.764;2023-02-22T01:33:29;9.20;99.90
43949;DHT22;29429;51.074;13.764;2023-02-22T01:35:57;9.20;99.90
43949;DHT22;29429;51.074;13.764;2023-02-22T01:38:26;9.20;99.90
43949;DHT22;29429;51.074;13.764;2023-02-22T01:40:53;9.20;99.90
43949;DHT22;29429;51.074;13.764;2023-02-22T01:43:24;9.20;99.90
43949;DHT22;29429;51.074;13.764;2023-02-22T01:45:58;9.10;99.90
43949;DHT22;29429;51.074;13.764;2023-02-22T01:49:05;9.20;99.90
43949;DHT22;29429;51.074;13.764;2023-02-22T01:51:36;9.20;99.90
43949;DHT22;29429;51.074;13.764;2023-02-22T01:56:52;9.20;99.90
43949;DHT22;29429;51.074;13.764;2023-02-22T01:59:28;9.10;99.90
43949;DHT22;29429;51.074;13.764;2023-02-22T02:02:00;9.40;99.90
43949;DHT22;29429;51.074;13.764;2023-02-22T02:04:27;9.30;99.90
43949;DHT22;29429;51.074;13.764;2023-02-22T02:06:57;9.20;99.90
43949;DHT22;29429;51.074;13.764;2023-02-22T02:09:38;9.50;99.90
43949;DHT22;29429;51.074;13.764;2023-02-22T02:12:15;9.30;99.90
43949;DHT22;29429;51.074;13.764;2023-02-22T02:14:44;9.30;99.90
43949;DHT22;29429;51.074;13.764;2023-02-22T02:17:13;9.30;99.90
43949;DHT22;29429;51.074;13.764;2023-02-22T02:19:48;9.30;99.90
43949;DHT22;29429;51.074;13.764;2023-02-22T02:40:40;9.30;99.90
43949;DHT22;29429;51.074;13.764;2023-02-22T02:46:10;9.30;99.90
43949;DHT22;29429;51.074;13.764;2023-02-22T02:48:45;9.30;99.90
43949;DHT22;29429;51.074;13.764;2023-02-22T02:51:23;9.20;99.90
43949;DHT22;29429;51.074;13.764;2023-02-22T02:53:58;9.30;99.90
43949;DHT22;29429;51.074;13.764;2023-02-22T02:56:27;9.30;99.90
43949;DHT22;29429;51.074;13.764;2023-02-22T02:58:55;9.20;99.90
43949;DHT22;29429;51.074;13.764;2023-02-22T03:01:48;9.20;99.90
43949;DHT22;29429;51.074;13.764;2023-02-22T03:04:20;9.20;99.90
43949;DHT22;29429;51.074;13.764;2023-02-22T03:09:49;9.20;99.90
43949;DHT22;29429;51.074;13.764;2023-02-22T03:18:38;9.20;99.90
43949;DHT22;29429;51.074;13.764;2023-02-22T03:21:32;9.30;99.90
43949;DHT22;29429;51.074;13.764;2023-02-22T03:26:50;9.30;99.90
43949;DHT22;29429;51.074;13.764;2023-02-22T03:29:23;9.20;99.90
43949;DHT22;29429;51.074;13.764;2023-02-22T03:31:58;9.20;99.90
43949;DHT22;29429;51.074;13.764;2023-02-22T03:34:42;9.10;99.90
43949;DHT22;29429;51.074;13.764;2023-02-22T03:37:26;9.20;99.90
43949;DHT22;29429;51.074;13.764;2023-02-22T03:39:57;9.20;99.90
43949;DHT22;29429;51.074;13.764;2023-02-22T03:42:32;9.30;99.90
43949;DHT22;29429;51.074;13.764;2023-02-22T03:45:04;9.30;99.90
43949;DHT22;29429;51.074;13.764;2023-02-22T03:47:40;9.30;99.90
43949;DHT22;29429;51.074;13.764;2023-02-22T03:50:28;9.30;99.90
43949;DHT22;29429;51.074;13.764;2023-02-22T03:52:57;9.30;99.90
43949;DHT22;29429;51.074;13.764;2023-02-22T03:55:30;9.20;99.90
43949;DHT22;29429;51.074;13.764;2023-02-22T03:57:58;9.30;99.90
43949;DHT22;29429;51.074;13.764;2023-02-22T04:00:32;9.40;99.90
43949;DHT22;29429;51.074;13.764;2023-02-22T04:03:01;9.20;99.90
43949;DHT22;29429;51.074;13.764;2023-02-22T04:05:29;9.20;99.90
43949;DHT22;29429;51.074;13.764;2023-02-22T04:07:57;9.20;99.90
43949;DHT22;29429;51.074;13.764;2023-02-22T04:10:25;9.20;99.90
43949;DHT22;29429;51.074;13.764;2023-02-22T04:12:52;9.10;99.90
43949;DHT22;29429;51.074;13.764;2023-02-22T04:15:22;9.10;99.90
43949;DHT22;29429;51.074;13.764;2023-02-22T04:17:54;9.10;99.90
43949;DHT22;29429;51.074;13.764;2023-02-22T04:20:21;9.00;99.90
43949;DHT22;29429;51.074;13.764;2023-02-22T04:22:54;9.20;99.90
43949;DHT22;29429;51.074;13.764;2023-02-22T04:25:23;9.00;99.90
43949;DHT22;29429;51.074;13.764;2023-02-22T04:27:51;8.90;99.90
43949;DHT22;29429;51.074;13.764;2023-02-22T04:30:29;8.80;99.90
43949;DHT22;29429;51.074;13.764;2023-02-22T04:32:56;8.70;99.90
43949;DHT22;29429;51.074;13.764;2023-02-22T04:35:24;8.60;99.90
43949;DHT22;29429;51.074;13.764;2023-02-22T04:37:51;8.50;99.90
43949;DHT22;29429;51.074;13.764;2023-02-22T04:40:18;8.40;99.90
43949;DHT22;29429;51.074;13.764;2023-02-22T04:42:46;8.40;99.90
43949;DHT22;29429;51.074;13.764;2023-02-22T04:45:13;8.40;99.90
43949;DHT22;29429;51.074;13.764;2023-02-22T04:47:40;8.30;99.90
43949;DHT22;29429;51.074;13.764;2023-02-22T04:50:08;8.40;99.90
43949;DHT22;29429;51.074;13.764;2023-02-22T04:52:37;8.40;99.90
43949;DHT22;29429;51.074;13.764;2023-02-22T04:55:04;8.40;99.90
43949;DHT22;29429;51.074;13.764;2023-02-22T04:57:34;8.50;99.90
43949;DHT22;29429;51.074;13.764;2023-02-22T05:00:02;8.50;99.90
43949;DHT22;29429;51.074;13.764;2023-02-22T05:02:31;8.60;99.90
43949;DHT22;29429;51.074;13.764;2023-02-22T05:04:58;8.70;99.90
43949;DHT22;29429;51.074;13.764;2023-02-22T05:07:25;8.70;99.90
43949;DHT22;29429;51.074;13.764;2023-02-22T05:09:52;8.80;99.90
43949;DHT22;29429;51.074;13.764;2023-02-22T05:12:19;8.80;99.90
43949;DHT22;29429;51.074;13.764;2023-02-22T05:14:46;8.80;99.90
43949;DHT22;29429;51.074;13.764;2023-02-22T05:17:13;8.80;99.90
43949;DHT22;29429;51.074;13.764;2023-02-22T05:19:40;8.90;99.90
43949;DHT22;29429;51.074;13.764;2023-02-22T05:22:08;8.90;99.90
43949;DHT22;29429;51.074;13.764;2023-02-22T05:24:35;8.90;99.90
43949;DHT22;29429;51.074;13.764;2023-02-22T05:27:01;9.10;99.90
43949;DHT22;29429;51.074;13.764;2023-02-22T05:29:28;9.00;99.90
43949;DHT22;29429;51.074;13.764;2023-02-22T05:31:55;9.00;99.90
43949;DHT22;29429;51.074;13.764;2023-02-22T05:34:23;9.20;99.90
43949;DHT22;29429;51.074;13.764;2023-02-22T05:36:50;8.90;99.90
43949;DHT22;29429;51.074;13.764;2023-02-22T05:39:17;9.00;99.90
43949;DHT22;29429;51.074;13.764;2023-02-22T05:41:44;8.90;99.90
43949;DHT22;29429;51.074;13.764;2023-02-22T05:44:11;9.00;99.90
43949;DHT22;29429;51.074;13.764;2023-02-22T05:46:38;9.00;99.90
43949;DHT22;29429;51.074;13.764;2023-02-22T05:49:05;9.00;99.90
43949;DHT22;29429;51.074;13.764;2023-02-22T05:51:33;8.90;99.90
43949;DHT22;29429;51.074;13.764;2023-02-22T05:54:00;8.90;99.90
43949;DHT22;29429;51.074;13.764;2023-02-22T05:56:28;9.30;99.90
43949;DHT22;29429;51.074;13.764;2023-02-22T05:58:56;8.90;99.90
43949;DHT22;29429;51.074;13.764;2023-02-22T06:01:24;8.90;99.90
43949;DHT22;29429;51.074;13.764;2023-02-22T06:03:52;8.90;99.90
43949;DHT22;29429;51.074;13.764;2023-02-22T06:06:19;8.90;99.90
43949;DHT22;29429;51.074;13.764;2023-02-22T06:08:48;8.80;99.90
43949;DHT22;29429;51.074;13.764;2023-02-22T06:11:15;8.70;99.90
43949;DHT22;29429;51.074;13.764;2023-02-22T06:13:48;8.70;99.90
43949;DHT22;29429;51.074;13.764;2023-02-22T06:16:18;8.80;99.90
43949;DHT22;29429;51.074;13.764;2023-02-22T06:18:47;8.70;99.90
43949;DHT22;29429;51.074;13.764;2023-02-22T06:21:15;8.70;99.90
43949;DHT22;29429;51.074;13.764;2023-02-22T06:23:43;8.60;99.90
43949;DHT22;29429;51.074;13.764;2023-02-22T06:26:10;8.70;99.90
43949;DHT22;29429;51.074;13.764;2023-02-22T06:28:37;8.80;99.90
43949;DHT22;29429;51.074;13.764;2023-02-22T06:31:04;8.80;99.90
43949;DHT22;29429;51.074;13.764;2023-02-22T06:33:31;8.80;99.90
43949;DHT22;29429;51.074;13.764;2023-02-22T06:35:58;8.80;99.90
43949;DHT22;29429;51.074;13.764;2023-02-22T06:38:25;8.90;99.90
43949;DHT22;29429;51.074;13.764;2023-02-22T06:40:53;8.80;99.90
43949;DHT22;29429;51.074;13.764;2023-02-22T06:43:23;9.00;99.90
43949;DHT22;29429;51.074;13.764;2023-02-22T06:45:51;9.00;99.90
43949;DHT22;29429;51.074;13.764;2023-02-22T06:48:18;9.10;99.90
43949;DHT22;29429;51.074;13.764;2023-02-22T06:50:45;9.10;99.90
43949;DHT22;29429;51.074;13.764;2023-02-22T06:53:12;9.10;99.90
43949;DHT22;29429;51.074;13.764;2023-02-22T06:55:39;9.20;99.90
43949;DHT22;29429;51.074;13.764;2023-02-22T06:58:06;9.20;99.90
43949;DHT22;29429;51.074;13.764;2023-02-22T07:00:33;9.40;99.90
43949;DHT22;29429;51.074;13.764;2023-02-22T07:03:03;9.30;99.90
43949;DHT22;29429;51.074;13.764;2023-02-22T07:05:30;9.30;99.90
43949;DHT22;29429;51.074;13.764;2023-02-22T07:08:05;9.40;99.90
43949;DHT22;29429;51.074;13.764;2023-02-22T07:10:34;9.40;99.90
43949;DHT22;29429;51.074;13.764;2023-02-22T07:13:03;9.50;99.90
43949;DHT22;29429;51.074;13.764;2023-02-22T07:15:34;9.50;99.90
43949;DHT22;29429;51.074;13.764;2023-02-22T07:18:02;9.60;99.90
43949;DHT22;29429;51.074;13.764;2023-02-22T07:20:30;9.60;99.90
43949;DHT22;29429;51.074;13.764;2023-02-22T07:23:01;9.70;99.90
43949;DHT22;29429;51.074;13.764;2023-02-22T07:25:29;9.80;99.90
43949;DHT22;29429;51.074;13.764;2023-02-22T07:27:57;9.80;99.90
43949;DHT22;29429;51.074;13.764;2023-02-22T07:30:26;9.90;99.90
43949;DHT22;29429;51.074;13.764;2023-02-22T07:32:59;9.90;99.90
43949;DHT22;29429;51.074;13.764;2023-02-22T07:35:32;10.00;99.90
43949;DHT22;29429;51.074;13.764;2023-02-22T07:38:28;10.00;99.90
43949;DHT22;29429;51.074;13.764;2023-02-22T07:40:55;10.10;99.90
43949;DHT22;29429;51.074;13.764;2023-02-22T07:43:25;10.20;99.90
43949;DHT22;29429;51.074;13.764;2023-02-22T07:45:59;10.20;99.90
43949;DHT22;29429;51.074;13.764;2023-02-22T07:48:30;10.30;99.90
43949;DHT22;29429;51.074;13.764;2023-02-22T07:50:58;10.30;99.90
43949;DHT22;29429;51.074;13.764;2023-02-22T07:53:27;10.40;99.90
43949;DHT22;29429;51.074;13.764;2023-02-22T07:55:57;10.50;99.90
43949;DHT22;29429;51.074;13.764;2023-02-22T07:58:29;10.50;99.90
43949;DHT22;29429;51.074;13.764;2023-02-22T08:00:58;10.60;99.90
43949;DHT22;29429;51.074;13.764;2023-02-22T08:03:33;10.60;99.90
43949;DHT22;29429;51.074;13.764;2023-02-22T08:06:04;10.60;99.90
43949;DHT22;29429;51.074;13.764;2023-02-22T08:08:33;10.70;99.90
43949;DHT22;29429;51.074;13.764;2023-02-22T08:11:00;10.70;99.90
43949;DHT22;29429;51.074;13.764;2023-02-22T08:13:28;10.70;99.90
43949;DHT22;29429;51.074;13.764;2023-02-22T08:15:55;10.80;99.90
43949;DHT22;29429;51.074;13.764;2023-02-22T08:18:23;10.80;99.90
43949;DHT22;29429;51.074;13.764;2023-02-22T08:20:51;10.90;99.90
43949;DHT22;29429;51.074;13.764;2023-02-22T08:23:21;10.90;99.90
43949;DHT22;29429;51.074;13.764;2023-02-22T08:25:51;11.00;99.90
43949;DHT22;29429;51.074;13.764;2023-02-22T08:28:21;11.10;99.90
43949;DHT22;29429;51.074;13.764;2023-02-22T08:30:50;11.10;99.90
43949;DHT22;29429;51.074;13.764;2023-02-22T08:33:20;11.10;99.90
43949;DHT22;29429;51.074;13.764;2023-02-22T08:35:48;11.20;99.90
43949;DHT22;29429;51.074;13.764;2023-02-22T08:38:23;11.30;99.90
43949;DHT22;29429;51.074;13.764;2023-02-22T08:40:52;11.40;99.90
43949;DHT22;29429;51.074;13.764;2023-02-22T08:43:20;11.40;99.90
43949;DHT22;29429;51.074;13.764;2023-02-22T08:45:49;11.50;99.90
43949;DHT22;29429;51.074;13.764;2023-02-22T08:48:18;11.70;99.90
43949;DHT22;29429;51.074;13.764;2023-02-22T08:50:46;11.60;99.90
43949;DHT22;29429;51.074;13.764;2023-02-22T08:53:14;11.80;99.90
43949;DHT22;29429;51.074;13.764;2023-02-22T08:55:43;11.80;99.90
43949;DHT22;29429;51.074;13.764;2023-02-22T08:58:11;11.90;99.90
43949;DHT22;29429;51.074;13.764;2023-02-22T09:00:39;12.10;99.90
43949;DHT22;29429;51.074;13.764;2023-02-22T09:03:10;11.90;99.90
43949;DHT22;29429;51.074;13.764;2023-02-22T09:05:41;12.10;99.90
43949;DHT22;29429;51.074;13.764;2023-02-22T09:08:09;12.20;99.90
43949;DHT22;29429;51.074;13.764;2023-02-22T09:10:37;12.20;99.90
43949;DHT22;29429;51.074;13.764;2023-02-22T09:13:04;12.30;99.90
43949;DHT22;29429;51.074;13.764;2023-02-22T09:15:33;12.30;99.90
43949;DHT22;29429;51.074;13.764;2023-02-22T09:18:05;12.20;99.90
43949;DHT22;29429;51.074;13.764;2023-02-22T09:20:37;12.40;99.90
43949;DHT22;29429;51.074;13.764;2023-02-22T09:23:05;12.40;99.90
43949;DHT22;29429;51.074;13.764;2023-02-22T09:25:32;12.40;99.90
43949;DHT22;29429;51.074;13.764;2023-02-22T09:28:04;12.50;99.90
43949;DHT22;29429;51.074;13.764;2023-02-22T09:30:33;12.50;99.90
43949;DHT22;29429;51.074;13.764;2023-02-22T09:33:06;12.60;99.90
43949;DHT22;29429;51.074;13.764;2023-02-22T09:35:39;12.60;99.90
43949;DHT22;29429;51.074;13.764;2023-02-22T09:38:22;12.70;99.90
43949;DHT22;29429;51.074;13.764;2023-02-22T09:41:03;12.70;99.90
43949;DHT22;29429;51.074;13.764;2023-02-22T09:49:05;12.90;99.90
43949;DHT22;29429;51.074;13.764;2023-02-22T09:54:56;13.10;99.90
43949;DHT22;29429;51.074;13.764;2023-02-22T09:57:40;13.10;99.90
43949;DHT22;29429;51.074;13.764;2023-02-22T10:00:17;13.20;99.90
43949;DHT22;29429;51.074;13.764;2023-02-22T10:06:03;13.40;99.90
43949;DHT22;29429;51.074;13.764;2023-02-22T10:08:38;13.40;99.90
43949;DHT22;29429;51.074;13.764;2023-02-22T10:14:44;13.60;99.90
43949;DHT22;29429;51.074;13.764;2023-02-22T10:20:37;13.80;99.90
43949;DHT22;29429;51.074;13.764;2023-02-22T10:26:41;14.10;99.90
43949;DHT22;29429;51.074;13.764;2023-02-22T10:29:39;14.10;99.90
43949;DHT22;29429;51.074;13.764;2023-02-22T10:32:23;14.00;99.90
43949;DHT22;29429;51.074;13.764;2023-02-22T10:34:54;13.90;99.90
43949;DHT22;29429;51.074;13.764;2023-02-22T10:37:25;13.70;99.90
43949;DHT22;29429;51.074;13.764;2023-02-22T10:40:14;13.50;99.90
43949;DHT22;29429;51.074;13.764;2023-02-22T10:42:50;13.50;99.90
43949;DHT22;29429;51.074;13.764;2023-02-22T10:45:28;13.50;99.90
43949;DHT22;29429;51.074;13.764;2023-02-22T10:48:04;13.60;99.90
43949;DHT22;29429;51.074;13.764;2023-02-22T10:50:36;13.70;99.90
43949;DHT22;29429;51.074;13.764;2023-02-22T10:53:08;13.80;99.90
43949;DHT22;29429;51.074;13.764;2023-02-22T10:59:00;14.10;99.90
43949;DHT22;29429;51.074;13.764;2023-02-22T11:06:47;14.20;99.90
43949;DHT22;29429;51.074;13.764;2023-02-22T11:09:50;14.40;99.90
43949;DHT22;29429;51.074;13.764;2023-02-22T11:12:25;14.40;99.90
43949;DHT22;29429;51.074;13.764;2023-02-22T11:14:53;14.50;99.90
43949;DHT22;29429;51.074;13.764;2023-02-22T11:17:30;14.50;99.90
43949;DHT22;29429;51.074;13.764;2023-02-22T11:19:58;14.50;99.90
43949;DHT22;29429;51.074;13.764;2023-02-22T11:22:30;14.50;99.90
43949;DHT22;29429;51.074;13.764;2023-02-22T11:25:07;14.40;99.90
43949;DHT22;29429;51.074;13.764;2023-02-22T11:27:39;14.50;99.90
43949;DHT22;29429;51.074;13.764;2023-02-22T11:30:28;14.50;99.90
43949;DHT22;29429;51.074;13.764;2023-02-22T11:33:17;14.50;99.90
43949;DHT22;29429;51.074;13.764;2023-02-22T11:35:55;14.60;99.90
43949;DHT22;29429;51.074;13.764;2023-02-22T11:38:30;14.80;99.90
43949;DHT22;29429;51.074;13.764;2023-02-22T11:41:14;14.80;99.90
43949;DHT22;29429;51.074;13.764;2023-02-22T11:43:50;14.90;99.90
43949;DHT22;29429;51.074;13.764;2023-02-22T11:46:23;14.90;99.90
43949;DHT22;29429;51.074;13.764;2023-02-22T11:49:01;14.90;99.90
43949;DHT22;29429;51.074;13.764;2023-02-22T12:09:49;15.20;99.90
43949;DHT22;29429;51.074;13.764;2023-02-22T12:13:04;15.20;99.90
43949;DHT22;29429;51.074;13.764;2023-02-22T12:16:10;15.10;99.90
43949;DHT22;29429;51.074;13.764;2023-02-22T12:19:05;15.10;99.90
43949;DHT22;29429;51.074;13.764;2023-02-22T12:21:57;15.00;99.90
43949;DHT22;29429;51.074;13.764;2023-02-22T12:24:29;14.80;99.90
43949;DHT22;29429;51.074;13.764;2023-02-22T12:27:13;14.90;99.90
43949;DHT22;29429;51.074;13.764;2023-02-22T12:29:50;14.90;99.90
43949;DHT22;29429;51.074;13.764;2023-02-22T12:32:46;14.90;99.90
43949;DHT22;29429;51.074;13.764;2023-02-22T12:35:23;14.90;99.90
43949;DHT22;29429;51.074;13.764;2023-02-22T12:38:20;14.90;99.90
43949;DHT22;29429;51.074;13.764;2023-02-22T12:46:43;14.80;99.90
43949;DHT22;29429;51.074;13.764;2023-02-22T13:00:34;14.70;99.90
43949;DHT22;29429;51.074;13.764;2023-02-22T13:06:25;14.70;99.90
43949;DHT22;29429;51.074;13.764;2023-02-22T13:15:01;14.60;99.90
43949;DHT22;29429;51.074;13.764;2023-02-22T13:17:50;14.60;99.90
43949;DHT22;29429;51.074;13.764;2023-02-22T13:20:32;14.60;99.90
43949;DHT22;29429;51.074;13.764;2023-02-22T13:26:50;14.60;99.90
43949;DHT22;29429;51.074;13.764;2023-02-22T13:29:17;14.60;99.90
43949;DHT22;29429;51.074;13.764;2023-02-22T13:32:18;14.60;99.90
43949;DHT22;29429;51.074;13.764;2023-02-22T13:49:46;14.60;99.90
43949;DHT22;29429;51.074;13.764;2023-02-22T13:52:22;14.60;99.90
43949;DHT22;29429;51.074;13.764;2023-02-22T13:54:56;14.50;99.90
43949;DHT22;29429;51.074;13.764;2023-02-22T13:57:31;14.50;99.90
43949;DHT22;29429;51.074;13.764;2023-02-22T14:11:01;14.10;99.90
43949;DHT22;29429;51.074;13.764;2023-02-22T14:16:47;14.00;99.90
43949;DHT22;29429;51.074;13.764;2023-02-22T14:21:30;13.90;99.90
43949;DHT22;29429;51.074;13.764;2023-02-22T14:24:50;13.80;99.90
43949;DHT22;29429;51.074;13.764;2023-02-22T14:27:42;13.90;99.90
43949;DHT22;29429;51.074;13.764;2023-02-22T14:30:35;13.70;99.90
43949;DHT22;29429;51.074;13.764;2023-02-22T14:34:19;13.60;99.90
43949;DHT22;29429;51.074;13.764;2023-02-22T14:37:06;13.60;99.90
43949;DHT22;29429;51.074;13.764;2023-02-22T14:39:52;13.60;99.90
43949;DHT22;29429;51.074;13.764;2023-02-22T14:42:33;13.50;99.90
43949;DHT22;29429;51.074;13.764;2023-02-22T14:45:23;13.50;99.90
43949;DHT22;29429;51.074;13.764;2023-02-22T14:51:22;13.40;99.90
43949;DHT22;29429;51.074;13.764;2023-02-22T14:54:10;13.40;99.90
43949;DHT22;29429;51.074;13.764;2023-02-22T14:57:11;13.40;99.90
43949;DHT22;29429;51.074;13.764;2023-02-22T15:00:18;13.40;99.90
43949;DHT22;29429;51.074;13.764;2023-02-22T15:02:58;13.30;99.90
43949;DHT22;29429;51.074;13.764;2023-02-22T15:05:35;13.30;99.90
43949;DHT22;29429;51.074;13.764;2023-02-22T15:08:07;13.30;99.90
43949;DHT22;29429;51.074;13.764;2023-02-22T15:13:25;13.10;99.90
43949;DHT22;29429;51.074;13.764;2023-02-22T15:16:13;13.00;99.90
43949;DHT22;29429;51.074;13.764;2023-02-22T15:18:56;12.90;99.90
43949;DHT22;29429;51.074;13.764;2023-02-22T15:21:31;12.90;99.90
43949;DHT22;29429;51.074;13.764;2023-02-22T15:24:05;12.90;99.90
43949;DHT22;29429;51.074;13.764;2023-02-22T15:26:45;12.80;99.90
43949;DHT22;29429;51.074;13.764;2023-02-22T15:29:35;12.80;99.90
43949;DHT22;29429;51.074;13.764;2023-02-22T15:35:51;12.70;99.90
43949;DHT22;29429;51.074;13.764;2023-02-22T15:38:28;12.60;99.90
43949;DHT22;29429;51.074;13.764;2023-02-22T15:41:04;12.50;99.90
43949;DHT22;29429;51.074;13.764;2023-02-22T15:43:36;12.40;99.90
43949;DHT22;29429;51.074;13.764;2023-02-22T15:46:06;12.40;99.90
43949;DHT22;29429;51.074;13.764;2023-02-22T15:48:34;12.30;99.90
43949;DHT22;29429;51.074;13.764;2023-02-22T15:51:07;12.30;99.90
43949;DHT22;29429;51.074;13.764;2023-02-22T15:53:48;12.20;99.90
43949;DHT22;29429;51.074;13.764;2023-02-22T15:56:28;12.00;99.90
43949;DHT22;29429;51.074;13.764;2023-02-22T15:59:15;11.90;99.90
43949;DHT22;29429;51.074;13.764;2023-02-22T16:01:50;11.70;99.90
43949;DHT22;29429;51.074;13.764;2023-02-22T16:04:30;11.60;99.90
43949;DHT22;29429;51.074;13.764;2023-02-22T16:07:23;11.40;99.90
43949;DHT22;29429;51.074;13.764;2023-02-22T16:13:22;11.10;99.90
43949;DHT22;29429;51.074;13.764;2023-02-22T16:18:31;10.90;99.90
43949;DHT22;29429;51.074;13.764;2023-02-22T16:21:03;10.80;99.90
43949;DHT22;29429;51.074;13.764;2023-02-22T16:23:52;10.70;99.90
43949;DHT22;29429;51.074;13.764;2023-02-22T16:26:39;10.60;99.90
43949;DHT22;29429;51.074;13.764;2023-02-22T16:29:07;10.50;99.90
43949;DHT22;29429;51.074;13.764;2023-02-22T16:31:37;10.50;99.90
43949;DHT22;29429;51.074;13.764;2023-02-22T16:34:07;10.30;99.90
43949;DHT22;29429;51.074;13.764;2023-02-22T16:36:41;10.30;99.90
43949;DHT22;29429;51.074;13.764;2023-02-22T16:39:28;10.20;99.90
43949;DHT22;29429;51.074;13.764;2023-02-22T16:42:01;10.20;99.90
43949;DHT22;29429;51.074;13.764;2023-02-22T16:44:30;10.10;99.90
43949;DHT22;29429;51.074;13.764;2023-02-22T16:46:58;10.00;99.90
43949;DHT22;29429;51.074;13.764;2023-02-22T16:49:26;10.00;99.90
43949;DHT22;29429;51.074;13.764;2023-02-22T16:51:55;10.00;99.90
43949;DHT22;29429;51.074;13.764;2023-02-22T16:54:29;9.90;99.90
43949;DHT22;29429;51.074;13.764;2023-02-22T16:57:01;9.80;99.90
43949;DHT22;29429;51.074;13.764;2023-02-22T16:59:32;9.80;99.90
43949;DHT22;29429;51.074;13.764;2023-02-22T17:02:04;9.80;99.90
43949;DHT22;29429;51.074;13.764;2023-02-22T17:04:35;9.70;99.90
43949;DHT22;29429;51.074;13.764;2023-02-22T17:07:02;9.70;99.90
43949;DHT22;29429;51.074;13.764;2023-02-22T17:09:31;9.60;99.90
43949;DHT22;29429;51.074;13.764;2023-02-22T17:11:58;9.60;99.90
43949;DHT22;29429;51.074;13.764;2023-02-22T17:14:32;9.50;99.90
43949;DHT22;29429;51.074;13.764;2023-02-22T17:17:08;9.50;99.90
43949;DHT22;29429;51.074;13.764;2023-02-22T17:19:37;9.40;99.90
43949;DHT22;29429;51.074;13.764;2023-02-22T17:22:04;9.30;99.90
43949;DHT22;29429;51.074;13.764;2023-02-22T17:24:34;9.30;99.90
43949;DHT22;29429;51.074;13.764;2023-02-22T17:27:02;9.30;99.90
43949;DHT22;29429;51.074;13.764;2023-02-22T17:29:29;9.30;99.90
43949;DHT22;29429;51.074;13.764;2023-02-22T17:31:56;9.20;99.90
43949;DHT22;29429;51.074;13.764;2023-02-22T17:34:24;9.20;99.90
43949;DHT22;29429;51.074;13.764;2023-02-22T17:36:51;9.50;99.90
43949;DHT22;29429;51.074;13.764;2023-02-22T17:39:18;9.20;99.90
43949;DHT22;29429;51.074;13.764;2023-02-22T17:41:45;9.30;99.90
43949;DHT22;29429;51.074;13.764;2023-02-22T17:44:14;9.20;99.90
43949;DHT22;29429;51.074;13.764;2023-02-22T17:46:42;9.20;99.90
43949;DHT22;29429;51.074;13.764;2023-02-22T17:49:09;9.30;99.90
43949;DHT22;29429;51.074;13.764;2023-02-22T17:51:40;9.30;99.90
43949;DHT22;29429;51.074;13.764;2023-02-22T17:54:07;9.30;99.90
43949;DHT22;29429;51.074;13.764;2023-02-22T17:56:38;9.30;99.90
43949;DHT22;29429;51.074;13.764;2023-02-22T17:59:08;9.30;99.90
43949;DHT22;29429;51.074;13.764;2023-02-22T18:01:35;9.20;99.90
43949;DHT22;29429;51.074;13.764;2023-02-22T18:04:02;9.20;99.90
43949;DHT22;29429;51.074;13.764;2023-02-22T18:06:31;9.20;99.90
43949;DHT22;29429;51.074;13.764;2023-02-22T18:08:59;9.10;99.90
43949;DHT22;29429;51.074;13.764;2023-02-22T18:11:27;9.10;99.90
43949;DHT22;29429;51.074;13.764;2023-02-22T18:13:58;9.00;99.90
43949;DHT22;29429;51.074;13.764;2023-02-22T18:16:25;9.00;99.90
43949;DHT22;29429;51.074;13.764;2023-02-22T18:18:54;8.90;99.90
43949;DHT22;29429;51.074;13.764;2023-02-22T18:21:22;8.80;99.90
43949;DHT22;29429;51.074;13.764;2023-02-22T18:23:52;8.70;99.90
43949;DHT22;29429;51.074;13.764;2023-02-22T18:26:21;8.80;99.90
43949;DHT22;29429;51.074;13.764;2023-02-22T18:28:50;8.70;99.90
43949;DHT22;29429;51.074;13.764;2023-02-22T18:31:20;8.80;99.90
43949;DHT22;29429;51.074;13.764;2023-02-22T18:33:50;8.60;99.90
43949;DHT22;29429;51.074;13.764;2023-02-22T18:36:19;8.60;99.90
43949;DHT22;29429;51.074;13.764;2023-02-22T18:38:51;8.50;99.90
43949;DHT22;29429;51.074;13.764;2023-02-22T18:41:21;8.60;99.90
43949;DHT22;29429;51.074;13.764;2023-02-22T18:43:55;8.50;99.90